sensor_id;sensor_type;location;lat;lon;timestamp;P1;durP1;ratioP1;P2;durP2;ratioP2
4391;SDS011;2210;51.938;8.488;2022-10-31T00:03:49;5.90;;;4.73;;
4391;SDS011;2210;51.938;8.488;2022-10-31T00:07:53;9.43;;;5.17;;
4391;SDS011;2210;51.938;8.488;2022-10-31T00:11:53;8.07;;;5.60;;
4391;SDS011;2210;51.938;8.488;2022-10-31T00:15:53;13.03;;;4.67;;
4391;SDS011;2210;51.938;8.488;2022-10-31T00:19:54;8.83;;;5.73;;
4391;SDS011;2210;51.938;8.488;2022-10-31T00:23:54;10.30;;;5.23;;
4391;SDS011;2210;51.938;8.488;2022-10-31T00:27:54;8.73;;;5.43;;
4391;SDS011;2210;51.938;8.488;2022-10-31T00:31:55;8.93;;;5.50;;
4391;SDS011;2210;51.938;8.488;2022-10-31T00:35:55;10.77;;;5.00;;
4391;SDS011;2210;51.938;8.488;2022-10-31T00:39:56;7.73;;;5.93;;
4391;SDS011;2210;51.938;8.488;2022-10-31T00:43:56;8.57;;;5.10;;
4391;SDS011;2210;51.938;8.488;2022-10-31T00:47:56;6.70;;;4.87;;
4391;SDS011;2210;51.938;8.488;2022-10-31T00:51:57;12.80;;;5.10;;
4391;SDS011;2210;51.938;8.488;2022-10-31T00:55:57;7.90;;;5.50;;
4391;SDS011;2210;51.938;8.488;2022-10-31T00:59:57;9.30;;;6.20;;
4391;SDS011;2210;51.938;8.488;2022-10-31T01:03:57;12.20;;;6.50;;
4391;SDS011;2210;51.938;8.488;2022-10-31T01:07:58;7.77;;;4.87;;
4391;SDS011;2210;51.938;8.488;2022-10-31T01:11:59;9.40;;;5.20;;
4391;SDS011;2210;51.938;8.488;2022-10-31T01:15:59;8.00;;;4.70;;
4391;SDS011;2210;51.938;8.488;2022-10-31T01:20:00;11.70;;;5.57;;
4391;SDS011;2210;51.938;8.488;2022-10-31T01:24:01;7.80;;;5.60;;
4391;SDS011;2210;51.938;8.488;2022-10-31T01:28:04;6.27;;;5.43;;
4391;SDS011;2210;51.938;8.488;2022-10-31T01:32:04;8.63;;;5.33;;
4391;SDS011;2210;51.938;8.488;2022-10-31T01:36:38;8.40;;;5.27;;
4391;SDS011;2210;51.938;8.488;2022-10-31T01:40:35;15.40;;;5.20;;
4391;SDS011;2210;51.938;8.488;2022-10-31T01:48:36;9.65;;;5.50;;
4391;SDS011;2210;51.938;8.488;2022-10-31T01:52:37;7.10;;;5.20;;
4391;SDS011;2210;51.938;8.488;2022-10-31T01:56:42;6.90;;;6.17;;
4391;SDS011;2210;51.938;8.488;2022-10-31T02:00:50;8.33;;;5.43;;
4391;SDS011;2210;51.938;8.488;2022-10-31T02:04:53;12.13;;;4.73;;
4391;SDS011;2210;51.938;8.488;2022-10-31T02:08:54;11.87;;;5.40;;
4391;SDS011;2210;51.938;8.488;2022-10-31T02:12:57;9.87;;;6.17;;
4391;SDS011;2210;51.938;8.488;2022-10-31T02:16:59;10.97;;;5.43;;
4391;SDS011;2210;51.938;8.488;2022-10-31T02:34:29;6.90;;;5.30;;
4391;SDS011;2210;51.938;8.488;2022-10-31T02:42:49;6.50;;;5.60;;
4391;SDS011;2210;51.938;8.488;2022-10-31T02:46:59;6.93;;;5.03;;
4391;SDS011;2210;51.938;8.488;2022-10-31T02:51:08;11.80;;;6.13;;
4391;SDS011;2210;51.938;8.488;2022-10-31T02:55:12;9.63;;;5.63;;
4391;SDS011;2210;51.938;8.488;2022-10-31T02:59:33;9.83;;;6.10;;
4391;SDS011;2210;51.938;8.488;2022-10-31T03:16:49;19.90;;;6.30;;
4391;SDS011;2210;51.938;8.488;2022-10-31T03:20:53;13.63;;;6.40;;
4391;SDS011;2210;51.938;8.488;2022-10-31T03:25:00;6.40;;;5.80;;
4391;SDS011;2210;51.938;8.488;2022-10-31T03:29:07;11.20;;;5.70;;
4391;SDS011;2210;51.938;8.488;2022-10-31T03:33:13;9.33;;;6.50;;
4391;SDS011;2210;51.938;8.488;2022-10-31T03:37:18;7.20;;;5.10;;
4391;SDS011;2210;51.938;8.488;2022-10-31T03:41:24;9.33;;;6.27;;
4391;SDS011;2210;51.938;8.488;2022-10-31T03:45:29;15.53;;;6.63;;
4391;SDS011;2210;51.938;8.488;2022-10-31T03:49:31;8.03;;;5.63;;
4391;SDS011;2210;51.938;8.488;2022-10-31T03:53:40;6.57;;;5.90;;
4391;SDS011;2210;51.938;8.488;2022-10-31T03:57:48;7.20;;;5.80;;
4391;SDS011;2210;51.938;8.488;2022-10-31T04:01:56;8.37;;;5.83;;
4391;SDS011;2210;51.938;8.488;2022-10-31T04:05:59;8.53;;;5.70;;
4391;SDS011;2210;51.938;8.488;2022-10-31T04:10:06;8.20;;;6.80;;
4391;SDS011;2210;51.938;8.488;2022-10-31T04:14:09;11.30;;;6.90;;
4391;SDS011;2210;51.938;8.488;2022-10-31T04:18:11;8.60;;;5.97;;
4391;SDS011;2210;51.938;8.488;2022-10-31T04:22:12;10.10;;;5.80;;
4391;SDS011;2210;51.938;8.488;2022-10-31T04:26:12;12.03;;;6.57;;
4391;SDS011;2210;51.938;8.488;2022-10-31T04:30:13;10.30;;;5.93;;
4391;SDS011;2210;51.938;8.488;2022-10-31T04:34:13;7.90;;;6.07;;
4391;SDS011;2210;51.938;8.488;2022-10-31T04:38:14;9.40;;;6.50;;
4391;SDS011;2210;51.938;8.488;2022-10-31T04:42:16;8.73;;;6.63;;
4391;SDS011;2210;51.938;8.488;2022-10-31T04:46:17;7.80;;;5.47;;
4391;SDS011;2210;51.938;8.488;2022-10-31T04:50:26;11.73;;;6.97;;
4391;SDS011;2210;51.938;8.488;2022-10-31T04:54:29;7.13;;;5.50;;
4391;SDS011;2210;51.938;8.488;2022-10-31T04:58:29;11.83;;;6.00;;
4391;SDS011;2210;51.938;8.488;2022-10-31T05:02:29;9.17;;;6.40;;
4391;SDS011;2210;51.938;8.488;2022-10-31T05:06:30;6.63;;;5.80;;
4391;SDS011;2210;51.938;8.488;2022-10-31T05:10:30;13.43;;;6.83;;
4391;SDS011;2210;51.938;8.488;2022-10-31T05:14:31;8.50;;;6.57;;
4391;SDS011;2210;51.938;8.488;2022-10-31T05:18:31;9.37;;;6.40;;
4391;SDS011;2210;51.938;8.488;2022-10-31T05:22:31;9.60;;;6.47;;
4391;SDS011;2210;51.938;8.488;2022-10-31T05:26:32;10.70;;;7.20;;
4391;SDS011;2210;51.938;8.488;2022-10-31T05:30:32;11.33;;;6.60;;
4391;SDS011;2210;51.938;8.488;2022-10-31T05:34:33;14.30;;;6.90;;
4391;SDS011;2210;51.938;8.488;2022-10-31T05:38:34;11.70;;;6.60;;
4391;SDS011;2210;51.938;8.488;2022-10-31T05:42:34;8.60;;;6.40;;
4391;SDS011;2210;51.938;8.488;2022-10-31T05:46:35;14.70;;;7.40;;
4391;SDS011;2210;51.938;8.488;2022-10-31T05:50:35;10.33;;;7.10;;
4391;SDS011;2210;51.938;8.488;2022-10-31T05:54:35;9.43;;;7.83;;
4391;SDS011;2210;51.938;8.488;2022-10-31T05:58:36;11.77;;;7.20;;
4391;SDS011;2210;51.938;8.488;2022-10-31T06:02:36;11.87;;;7.93;;
4391;SDS011;2210;51.938;8.488;2022-10-31T06:06:36;11.10;;;7.77;;
4391;SDS011;2210;51.938;8.488;2022-10-31T06:10:36;12.90;;;8.53;;
4391;SDS011;2210;51.938;8.488;2022-10-31T06:14:37;7.33;;;6.03;;
4391;SDS011;2210;51.938;8.488;2022-10-31T06:18:37;10.93;;;7.17;;
4391;SDS011;2210;51.938;8.488;2022-10-31T06:22:37;11.10;;;7.40;;
4391;SDS011;2210;51.938;8.488;2022-10-31T06:26:37;9.37;;;7.10;;
4391;SDS011;2210;51.938;8.488;2022-10-31T06:30:38;11.63;;;6.93;;
4391;SDS011;2210;51.938;8.488;2022-10-31T06:34:38;9.33;;;6.87;;
4391;SDS011;2210;51.938;8.488;2022-10-31T06:38:39;9.30;;;6.80;;
4391;SDS011;2210;51.938;8.488;2022-10-31T06:42:39;9.20;;;7.20;;
4391;SDS011;2210;51.938;8.488;2022-10-31T06:46:40;13.20;;;8.55;;
4391;SDS011;2210;51.938;8.488;2022-10-31T06:50:40;18.10;;;9.57;;
4391;SDS011;2210;51.938;8.488;2022-10-31T06:54:40;14.70;;;10.60;;
4391;SDS011;2210;51.938;8.488;2022-10-31T06:58:40;14.73;;;11.30;;
4391;SDS011;2210;51.938;8.488;2022-10-31T07:02:41;17.07;;;10.10;;
4391;SDS011;2210;51.938;8.488;2022-10-31T07:06:41;16.43;;;11.40;;
4391;SDS011;2210;51.938;8.488;2022-10-31T07:10:42;18.47;;;11.07;;
4391;SDS011;2210;51.938;8.488;2022-10-31T07:14:43;23.57;;;11.63;;
4391;SDS011;2210;51.938;8.488;2022-10-31T07:18:43;18.57;;;11.43;;
4391;SDS011;2210;51.938;8.488;2022-10-31T07:22:43;14.00;;;10.50;;
4391;SDS011;2210;51.938;8.488;2022-10-31T07:26:45;23.17;;;10.57;;
4391;SDS011;2210;51.938;8.488;2022-10-31T07:30:53;17.87;;;12.80;;
4391;SDS011;2210;51.938;8.488;2022-10-31T07:34:55;17.63;;;12.50;;
4391;SDS011;2210;51.938;8.488;2022-10-31T07:38:55;20.17;;;13.00;;
4391;SDS011;2210;51.938;8.488;2022-10-31T07:42:58;23.90;;;13.23;;
4391;SDS011;2210;51.938;8.488;2022-10-31T07:46:58;23.70;;;13.50;;
4391;SDS011;2210;51.938;8.488;2022-10-31T07:50:58;24.03;;;14.60;;
4391;SDS011;2210;51.938;8.488;2022-10-31T07:55:02;28.80;;;14.00;;
4391;SDS011;2210;51.938;8.488;2022-10-31T07:59:03;26.00;;;14.67;;
4391;SDS011;2210;51.938;8.488;2022-10-31T08:03:07;24.13;;;16.10;;
4391;SDS011;2210;51.938;8.488;2022-10-31T08:07:10;20.20;;;14.47;;
4391;SDS011;2210;51.938;8.488;2022-10-31T08:11:11;23.43;;;15.63;;
4391;SDS011;2210;51.938;8.488;2022-10-31T08:15:11;26.33;;;15.50;;
4391;SDS011;2210;51.938;8.488;2022-10-31T08:19:12;27.43;;;15.17;;
4391;SDS011;2210;51.938;8.488;2022-10-31T08:23:12;22.93;;;15.83;;
4391;SDS011;2210;51.938;8.488;2022-10-31T08:27:13;24.30;;;16.50;;
4391;SDS011;2210;51.938;8.488;2022-10-31T08:31:13;23.83;;;17.20;;
4391;SDS011;2210;51.938;8.488;2022-10-31T08:35:13;23.10;;;16.70;;
4391;SDS011;2210;51.938;8.488;2022-10-31T08:39:14;24.10;;;16.00;;
4391;SDS011;2210;51.938;8.488;2022-10-31T08:43:15;24.50;;;16.27;;
4391;SDS011;2210;51.938;8.488;2022-10-31T08:47:16;22.73;;;16.63;;
4391;SDS011;2210;51.938;8.488;2022-10-31T08:51:16;27.33;;;15.60;;
4391;SDS011;2210;51.938;8.488;2022-10-31T08:55:16;25.63;;;16.43;;
4391;SDS011;2210;51.938;8.488;2022-10-31T08:59:17;20.03;;;14.67;;
4391;SDS011;2210;51.938;8.488;2022-10-31T09:03:18;20.87;;;16.70;;
4391;SDS011;2210;51.938;8.488;2022-10-31T09:07:22;27.80;;;18.80;;
4391;SDS011;2210;51.938;8.488;2022-10-31T09:11:23;25.77;;;17.07;;
4391;SDS011;2210;51.938;8.488;2022-10-31T09:15:23;24.50;;;17.50;;
4391;SDS011;2210;51.938;8.488;2022-10-31T09:19:24;30.77;;;18.77;;
4391;SDS011;2210;51.938;8.488;2022-10-31T09:23:25;29.17;;;19.30;;
4391;SDS011;2210;51.938;8.488;2022-10-31T09:27:25;25.30;;;18.57;;
4391;SDS011;2210;51.938;8.488;2022-10-31T09:31:25;35.60;;;18.40;;
4391;SDS011;2210;51.938;8.488;2022-10-31T09:35:26;37.47;;;19.23;;
4391;SDS011;2210;51.938;8.488;2022-10-31T09:39:27;30.73;;;19.00;;
4391;SDS011;2210;51.938;8.488;2022-10-31T09:43:40;28.47;;;17.50;;
4391;SDS011;2210;51.938;8.488;2022-10-31T09:48:11;27.93;;;17.77;;
4391;SDS011;2210;51.938;8.488;2022-10-31T09:52:14;28.17;;;17.37;;
4391;SDS011;2210;51.938;8.488;2022-10-31T09:56:21;28.43;;;18.10;;
4391;SDS011;2210;51.938;8.488;2022-10-31T10:00:23;29.70;;;18.97;;
4391;SDS011;2210;51.938;8.488;2022-10-31T10:08:42;30.37;;;18.33;;
4391;SDS011;2210;51.938;8.488;2022-10-31T10:17:20;22.90;;;15.97;;
4391;SDS011;2210;51.938;8.488;2022-10-31T10:25:51;23.93;;;15.97;;
4391;SDS011;2210;51.938;8.488;2022-10-31T10:30:03;26.50;;;14.70;;
4391;SDS011;2210;51.938;8.488;2022-10-31T10:42:37;14.77;;;11.27;;
4391;SDS011;2210;51.938;8.488;2022-10-31T10:46:56;21.37;;;10.63;;
4391;SDS011;2210;51.938;8.488;2022-10-31T10:51:20;13.93;;;9.80;;
4391;SDS011;2210;51.938;8.488;2022-10-31T10:55:51;15.00;;;9.67;;
4391;SDS011;2210;51.938;8.488;2022-10-31T10:59:59;15.07;;;8.43;;
4391;SDS011;2210;51.938;8.488;2022-10-31T11:04:02;14.80;;;8.70;;
4391;SDS011;2210;51.938;8.488;2022-10-31T11:08:03;13.33;;;9.50;;
4391;SDS011;2210;51.938;8.488;2022-10-31T11:12:37;18.13;;;9.80;;
4391;SDS011;2210;51.938;8.488;2022-10-31T11:16:36;17.20;;;11.37;;
4391;SDS011;2210;51.938;8.488;2022-10-31T11:20:38;13.33;;;9.20;;
4391;SDS011;2210;51.938;8.488;2022-10-31T11:24:40;18.60;;;9.00;;
4391;SDS011;2210;51.938;8.488;2022-10-31T11:28:41;15.77;;;10.03;;
4391;SDS011;2210;51.938;8.488;2022-10-31T11:32:43;22.93;;;10.40;;
4391;SDS011;2210;51.938;8.488;2022-10-31T11:36:49;24.10;;;11.30;;
4391;SDS011;2210;51.938;8.488;2022-10-31T11:40:57;11.80;;;9.63;;
4391;SDS011;2210;51.938;8.488;2022-10-31T11:45:02;16.83;;;10.80;;
4391;SDS011;2210;51.938;8.488;2022-10-31T11:49:25;13.57;;;10.27;;
4391;SDS011;2210;51.938;8.488;2022-10-31T11:53:32;21.60;;;10.60;;
4391;SDS011;2210;51.938;8.488;2022-10-31T11:57:43;18.63;;;11.40;;
4391;SDS011;2210;51.938;8.488;2022-10-31T12:01:49;19.20;;;12.77;;
4391;SDS011;2210;51.938;8.488;2022-10-31T12:05:55;16.90;;;12.60;;
4391;SDS011;2210;51.938;8.488;2022-10-31T12:10:01;18.20;;;13.67;;
4391;SDS011;2210;51.938;8.488;2022-10-31T12:14:16;22.17;;;13.83;;
4391;SDS011;2210;51.938;8.488;2022-10-31T12:32:14;20.27;;;13.67;;
4391;SDS011;2210;51.938;8.488;2022-10-31T12:36:31;19.10;;;12.50;;
4391;SDS011;2210;51.938;8.488;2022-10-31T12:53:38;26.10;;;11.77;;
4391;SDS011;2210;51.938;8.488;2022-10-31T12:58:03;17.33;;;10.90;;
4391;SDS011;2210;51.938;8.488;2022-10-31T13:06:22;16.23;;;10.90;;
4391;SDS011;2210;51.938;8.488;2022-10-31T13:10:31;18.43;;;10.13;;
4391;SDS011;2210;51.938;8.488;2022-10-31T13:14:34;10.40;;;8.57;;
4391;SDS011;2210;51.938;8.488;2022-10-31T13:18:43;18.00;;;8.50;;
4391;SDS011;2210;51.938;8.488;2022-10-31T13:27:24;12.73;;;7.67;;
4391;SDS011;2210;51.938;8.488;2022-10-31T13:31:26;13.27;;;7.37;;
4391;SDS011;2210;51.938;8.488;2022-10-31T13:39:40;15.83;;;7.30;;
4391;SDS011;2210;51.938;8.488;2022-10-31T13:44:13;17.37;;;6.63;;
4391;SDS011;2210;51.938;8.488;2022-10-31T13:52:29;7.90;;;5.83;;
4391;SDS011;2210;51.938;8.488;2022-10-31T13:56:30;9.10;;;6.20;;
4391;SDS011;2210;51.938;8.488;2022-10-31T14:00:33;10.33;;;5.53;;
4391;SDS011;2210;51.938;8.488;2022-10-31T14:04:46;9.63;;;5.87;;
4391;SDS011;2210;51.938;8.488;2022-10-31T14:08:52;7.83;;;5.23;;
4391;SDS011;2210;51.938;8.488;2022-10-31T14:12:53;22.17;;;7.27;;
4391;SDS011;2210;51.938;8.488;2022-10-31T14:17:04;14.90;;;6.30;;
4391;SDS011;2210;51.938;8.488;2022-10-31T14:21:24;11.17;;;6.60;;
4391;SDS011;2210;51.938;8.488;2022-10-31T14:29:33;9.80;;;6.10;;
4391;SDS011;2210;51.938;8.488;2022-10-31T14:33:33;10.47;;;6.93;;
4391;SDS011;2210;51.938;8.488;2022-10-31T14:42:03;14.67;;;7.00;;
4391;SDS011;2210;51.938;8.488;2022-10-31T14:54:53;10.03;;;6.93;;
4391;SDS011;2210;51.938;8.488;2022-10-31T14:58:58;10.20;;;6.90;;
4391;SDS011;2210;51.938;8.488;2022-10-31T15:07:25;10.57;;;6.70;;
4391;SDS011;2210;51.938;8.488;2022-10-31T15:11:27;19.67;;;6.50;;
4391;SDS011;2210;51.938;8.488;2022-10-31T15:15:27;11.77;;;7.07;;
4391;SDS011;2210;51.938;8.488;2022-10-31T15:19:28;10.90;;;7.50;;
4391;SDS011;2210;51.938;8.488;2022-10-31T15:23:30;10.73;;;6.47;;
4391;SDS011;2210;51.938;8.488;2022-10-31T15:27:31;10.53;;;6.97;;
4391;SDS011;2210;51.938;8.488;2022-10-31T15:31:33;12.77;;;7.13;;
4391;SDS011;2210;51.938;8.488;2022-10-31T15:35:33;13.33;;;7.40;;
4391;SDS011;2210;51.938;8.488;2022-10-31T15:39:34;14.57;;;7.20;;
4391;SDS011;2210;51.938;8.488;2022-10-31T15:43:35;8.93;;;6.73;;
4391;SDS011;2210;51.938;8.488;2022-10-31T15:47:37;8.27;;;6.90;;
4391;SDS011;2210;51.938;8.488;2022-10-31T15:51:39;16.37;;;7.43;;
4391;SDS011;2210;51.938;8.488;2022-10-31T15:55:50;12.90;;;6.60;;
4391;SDS011;2210;51.938;8.488;2022-10-31T15:59:54;8.57;;;6.93;;
4391;SDS011;2210;51.938;8.488;2022-10-31T16:08:30;13.63;;;7.80;;
4391;SDS011;2210;51.938;8.488;2022-10-31T16:12:36;10.93;;;6.33;;
4391;SDS011;2210;51.938;8.488;2022-10-31T16:16:44;11.00;;;6.40;;
4391;SDS011;2210;51.938;8.488;2022-10-31T16:20:50;11.20;;;7.03;;
4391;SDS011;2210;51.938;8.488;2022-10-31T16:24:57;11.07;;;6.53;;
4391;SDS011;2210;51.938;8.488;2022-10-31T16:29:01;15.30;;;8.03;;
4391;SDS011;2210;51.938;8.488;2022-10-31T16:33:02;18.23;;;7.10;;
4391;SDS011;2210;51.938;8.488;2022-10-31T16:37:02;12.67;;;6.80;;
4391;SDS011;2210;51.938;8.488;2022-10-31T16:41:06;9.13;;;6.53;;
4391;SDS011;2210;51.938;8.488;2022-10-31T16:45:07;10.50;;;7.00;;
4391;SDS011;2210;51.938;8.488;2022-10-31T16:49:14;12.37;;;6.93;;
4391;SDS011;2210;51.938;8.488;2022-10-31T16:53:15;10.43;;;7.37;;
4391;SDS011;2210;51.938;8.488;2022-10-31T16:57:17;11.07;;;6.97;;
4391;SDS011;2210;51.938;8.488;2022-10-31T17:01:23;13.93;;;7.50;;
4391;SDS011;2210;51.938;8.488;2022-10-31T17:05:24;14.50;;;8.13;;
4391;SDS011;2210;51.938;8.488;2022-10-31T17:09:29;12.77;;;6.20;;
4391;SDS011;2210;51.938;8.488;2022-10-31T17:13:30;13.90;;;7.63;;
4391;SDS011;2210;51.938;8.488;2022-10-31T17:17:32;11.43;;;6.87;;
4391;SDS011;2210;51.938;8.488;2022-10-31T17:21:33;10.90;;;7.07;;
4391;SDS011;2210;51.938;8.488;2022-10-31T17:25:33;19.87;;;7.50;;
4391;SDS011;2210;51.938;8.488;2022-10-31T17:29:34;10.27;;;6.80;;
4391;SDS011;2210;51.938;8.488;2022-10-31T17:33:35;9.67;;;7.13;;
4391;SDS011;2210;51.938;8.488;2022-10-31T17:37:35;18.47;;;9.23;;
4391;SDS011;2210;51.938;8.488;2022-10-31T17:41:36;13.73;;;7.50;;
4391;SDS011;2210;51.938;8.488;2022-10-31T17:45:40;12.87;;;7.50;;
4391;SDS011;2210;51.938;8.488;2022-10-31T17:49:40;11.43;;;7.80;;
4391;SDS011;2210;51.938;8.488;2022-10-31T17:53:41;18.33;;;8.43;;
4391;SDS011;2210;51.938;8.488;2022-10-31T17:57:41;12.97;;;7.70;;
4391;SDS011;2210;51.938;8.488;2022-10-31T18:01:43;11.77;;;7.70;;
4391;SDS011;2210;51.938;8.488;2022-10-31T18:05:56;13.60;;;8.67;;
4391;SDS011;2210;51.938;8.488;2022-10-31T18:09:57;14.13;;;7.70;;
4391;SDS011;2210;51.938;8.488;2022-10-31T18:13:58;14.33;;;8.30;;
4391;SDS011;2210;51.938;8.488;2022-10-31T18:17:59;13.03;;;8.30;;
4391;SDS011;2210;51.938;8.488;2022-10-31T18:21:59;17.20;;;8.63;;
4391;SDS011;2210;51.938;8.488;2022-10-31T18:26:00;15.23;;;8.90;;
4391;SDS011;2210;51.938;8.488;2022-10-31T18:30:00;16.10;;;8.57;;
4391;SDS011;2210;51.938;8.488;2022-10-31T18:34:00;14.73;;;8.70;;
4391;SDS011;2210;51.938;8.488;2022-10-31T18:38:00;14.90;;;9.20;;
4391;SDS011;2210;51.938;8.488;2022-10-31T18:42:01;13.30;;;8.50;;
4391;SDS011;2210;51.938;8.488;2022-10-31T18:46:02;12.77;;;7.13;;
4391;SDS011;2210;51.938;8.488;2022-10-31T18:50:03;15.80;;;8.40;;
4391;SDS011;2210;51.938;8.488;2022-10-31T18:54:04;10.43;;;7.70;;
4391;SDS011;2210;51.938;8.488;2022-10-31T18:58:04;18.53;;;8.10;;
4391;SDS011;2210;51.938;8.488;2022-10-31T19:02:04;13.43;;;8.73;;
4391;SDS011;2210;51.938;8.488;2022-10-31T19:06:05;16.77;;;8.90;;
4391;SDS011;2210;51.938;8.488;2022-10-31T19:10:06;14.50;;;7.43;;
4391;SDS011;2210;51.938;8.488;2022-10-31T19:14:07;12.70;;;7.70;;
4391;SDS011;2210;51.938;8.488;2022-10-31T19:18:07;12.20;;;7.43;;
4391;SDS011;2210;51.938;8.488;2022-10-31T19:22:07;12.67;;;7.77;;
4391;SDS011;2210;51.938;8.488;2022-10-31T19:26:08;9.97;;;7.17;;
4391;SDS011;2210;51.938;8.488;2022-10-31T19:30:09;12.13;;;7.50;;
4391;SDS011;2210;51.938;8.488;2022-10-31T19:34:10;12.70;;;7.10;;
4391;SDS011;2210;51.938;8.488;2022-10-31T19:38:10;11.00;;;6.43;;
4391;SDS011;2210;51.938;8.488;2022-10-31T19:42:10;13.53;;;6.80;;
4391;SDS011;2210;51.938;8.488;2022-10-31T19:46:11;8.03;;;6.43;;
4391;SDS011;2210;51.938;8.488;2022-10-31T19:50:13;12.10;;;7.40;;
4391;SDS011;2210;51.938;8.488;2022-10-31T19:54:14;10.60;;;6.73;;
4391;SDS011;2210;51.938;8.488;2022-10-31T19:58:14;10.10;;;7.10;;
4391;SDS011;2210;51.938;8.488;2022-10-31T20:02:14;13.20;;;7.90;;
4391;SDS011;2210;51.938;8.488;2022-10-31T20:06:28;10.67;;;7.43;;
4391;SDS011;2210;51.938;8.488;2022-10-31T20:10:31;11.57;;;6.77;;
4391;SDS011;2210;51.938;8.488;2022-10-31T20:14:32;22.33;;;7.23;;
4391;SDS011;2210;51.938;8.488;2022-10-31T20:18:32;8.27;;;6.20;;
4391;SDS011;2210;51.938;8.488;2022-10-31T20:22:37;8.97;;;6.80;;
4391;SDS011;2210;51.938;8.488;2022-10-31T20:26:38;12.97;;;7.70;;
4391;SDS011;2210;51.938;8.488;2022-10-31T20:30:39;10.43;;;6.90;;
4391;SDS011;2210;51.938;8.488;2022-10-31T20:34:39;9.90;;;6.67;;
4391;SDS011;2210;51.938;8.488;2022-10-31T20:38:40;11.87;;;7.77;;
4391;SDS011;2210;51.938;8.488;2022-10-31T20:42:41;12.23;;;6.60;;
4391;SDS011;2210;51.938;8.488;2022-10-31T20:46:41;13.53;;;6.83;;
4391;SDS011;2210;51.938;8.488;2022-10-31T20:50:42;8.57;;;7.17;;
4391;SDS011;2210;51.938;8.488;2022-10-31T20:54:42;9.90;;;6.80;;
4391;SDS011;2210;51.938;8.488;2022-10-31T20:58:42;16.27;;;7.47;;
4391;SDS011;2210;51.938;8.488;2022-10-31T21:02:43;18.00;;;7.17;;
4391;SDS011;2210;51.938;8.488;2022-10-31T21:06:44;9.03;;;7.03;;
4391;SDS011;2210;51.938;8.488;2022-10-31T21:10:44;14.13;;;7.40;;
4391;SDS011;2210;51.938;8.488;2022-10-31T21:14:44;14.70;;;7.20;;
4391;SDS011;2210;51.938;8.488;2022-10-31T21:18:45;11.47;;;6.80;;
4391;SDS011;2210;51.938;8.488;2022-10-31T21:22:46;9.20;;;5.93;;
4391;SDS011;2210;51.938;8.488;2022-10-31T21:26:48;13.00;;;7.10;;
4391;SDS011;2210;51.938;8.488;2022-10-31T21:30:50;10.10;;;7.53;;
4391;SDS011;2210;51.938;8.488;2022-10-31T21:34:50;9.20;;;6.90;;
4391;SDS011;2210;51.938;8.488;2022-10-31T21:38:51;13.50;;;7.20;;
4391;SDS011;2210;51.938;8.488;2022-10-31T21:42:54;11.33;;;6.67;;
4391;SDS011;2210;51.938;8.488;2022-10-31T21:46:55;17.77;;;7.30;;
4391;SDS011;2210;51.938;8.488;2022-10-31T21:50:55;9.20;;;5.87;;
4391;SDS011;2210;51.938;8.488;2022-10-31T21:54:55;11.63;;;6.70;;
4391;SDS011;2210;51.938;8.488;2022-10-31T21:58:56;11.67;;;6.80;;
4391;SDS011;2210;51.938;8.488;2022-10-31T22:02:56;10.00;;;6.13;;
4391;SDS011;2210;51.938;8.488;2022-10-31T22:06:56;11.57;;;6.80;;
4391;SDS011;2210;51.938;8.488;2022-10-31T22:11:01;15.73;;;7.20;;
4391;SDS011;2210;51.938;8.488;2022-10-31T22:15:05;12.87;;;6.60;;
4391;SDS011;2210;51.938;8.488;2022-10-31T22:19:06;12.73;;;7.00;;
4391;SDS011;2210;51.938;8.488;2022-10-31T22:23:08;14.37;;;6.40;;
4391;SDS011;2210;51.938;8.488;2022-10-31T22:27:09;12.87;;;6.10;;
4391;SDS011;2210;51.938;8.488;2022-10-31T22:31:10;14.93;;;6.40;;
4391;SDS011;2210;51.938;8.488;2022-10-31T22:35:11;7.37;;;6.43;;
4391;SDS011;2210;51.938;8.488;2022-10-31T22:39:11;13.50;;;6.30;;
4391;SDS011;2210;51.938;8.488;2022-10-31T22:43:12;13.77;;;6.70;;
4391;SDS011;2210;51.938;8.488;2022-10-31T22:47:13;12.27;;;5.83;;
4391;SDS011;2210;51.938;8.488;2022-10-31T22:51:14;19.57;;;6.40;;
4391;SDS011;2210;51.938;8.488;2022-10-31T22:55:16;8.83;;;5.87;;
4391;SDS011;2210;51.938;8.488;2022-10-31T22:59:17;10.47;;;6.27;;
4391;SDS011;2210;51.938;8.488;2022-10-31T23:03:17;11.70;;;5.87;;
4391;SDS011;2210;51.938;8.488;2022-10-31T23:07:17;10.93;;;6.30;;
4391;SDS011;2210;51.938;8.488;2022-10-31T23:11:24;9.10;;;5.77;;
4391;SDS011;2210;51.938;8.488;2022-10-31T23:15:26;9.33;;;5.57;;
4391;SDS011;2210;51.938;8.488;2022-10-31T23:19:27;11.43;;;6.23;;
4391;SDS011;2210;51.938;8.488;2022-10-31T23:23:31;9.60;;;6.00;;
4391;SDS011;2210;51.938;8.488;2022-10-31T23:27:33;13.23;;;5.60;;
4391;SDS011;2210;51.938;8.488;2022-10-31T23:31:33;12.23;;;6.73;;
4391;SDS011;2210;51.938;8.488;2022-10-31T23:35:34;6.67;;;5.50;;
4391;SDS011;2210;51.938;8.488;2022-10-31T23:39:34;16.60;;;5.70;;
4391;SDS011;2210;51.938;8.488;2022-10-31T23:43:34;9.00;;;5.00;;
4391;SDS011;2210;51.938;8.488;2022-10-31T23:47:35;6.60;;;5.30;;
4391;SDS011;2210;51.938;8.488;2022-10-31T23:51:35;12.60;;;5.63;;
4391;SDS011;2210;51.938;8.488;2022-10-31T23:55:36;10.23;;;5.80;;
4391;SDS011;2210;51.938;8.488;2022-10-31T23:59:36;11.03;;;6.00;;
